Terminal Aerodrome Forecast
Issued by NWS Sioux Falls, SD

Home | Current Version | Previous Version | Graphics & Text | Print | Product List | Glossary Off
Versions: 1 2 3 4 5 6 7 8 9 10 11 12 13 14 15

000
FTUS43 KFSD 202344
TAFHON
TAF
KHON 202344Z 2100/2124 15006KT P6SM SKC
     FM210200 15008KT P6SM BKN015
     FM210600 16011KT P6SM SCT015
     FM211500 18013G20KT P6SM FEW015 BKN120
     FM212100 18008KT P6SM FEW015 BKN120=

USA.gov is the U.S. government's official web portal to all federal, state and local government web resources and services.